Time;durP1;ratioP1;P1;durP2;ratioP2;P2;SDS_P1;SDS_P2;PMS_P1;PMS_P2;Temp;Humidity;BMP_temperature;BMP_pressure;BME280_temperature;BME280_humidity;BME280_pressure;Samples;Min_cycle;Max_cycle;Signal;HPM_P1;HPM_P2
2022/12/06 00:01:41;;;;;;;27.17;15.90;;;;;;;2.03;100.00;96454.13;4857652;29;20528;-87
2022/12/06 00:04:11;;;;;;;25.50;15.23;;;;;;;1.96;100.00;96451.09;4856644;29;20496;-87
2022/12/06 00:06:46;;;;;;;23.00;15.17;;;;;;;1.97;100.00;96457.94;4857937;29;20084;-87
2022/12/06 00:09:24;;;;;;;26.53;15.43;;;;;;;1.96;100.00;96456.28;4830110;29;20037;-87
2022/12/06 00:11:51;;;;;;;24.37;16.00;;;;;;;1.98;100.00;96454.44;4847552;29;20048;-88
2022/12/06 00:14:18;;;;;;;25.50;15.87;;;;;;;1.95;100.00;96454.63;4790077;29;20033;-86
2022/12/06 00:16:45;;;;;;;23.17;15.80;;;;;;;2.00;100.00;96456.91;4800099;29;20637;-87
2022/12/06 00:19:20;;;;;;;24.33;15.70;;;;;;;2.00;100.00;96462.09;4802016;29;22986;-87
2022/12/06 00:21:46;;;;;;;27.43;15.73;;;;;;;2.01;100.00;96455.97;4783580;29;20045;-88
2022/12/06 00:24:14;;;;;;;22.43;14.70;;;;;;;1.97;100.00;96454.50;4785012;29;20087;-87
2022/12/06 00:26:43;;;;;;;26.47;16.27;;;;;;;2.00;100.00;96455.13;4786877;29;20759;-87
2022/12/06 00:29:18;;;;;;;20.53;13.83;;;;;;;2.01;100.00;96458.56;4798627;29;20034;-88
2022/12/06 00:31:45;;;;;;;24.40;15.20;;;;;;;1.98;100.00;96458.75;4797588;29;20056;-87
2022/12/06 00:34:10;;;;;;;23.97;15.30;;;;;;;1.95;100.00;96452.03;4801741;29;20653;-87
2022/12/06 00:36:38;;;;;;;23.67;14.67;;;;;;;1.98;100.00;96449.25;4783203;29;20444;-87
2022/12/06 00:39:10;;;;;;;21.13;13.83;;;;;;;1.96;100.00;96451.09;4782325;29;20487;-88
2022/12/06 00:41:36;;;;;;;24.07;14.77;;;;;;;1.93;100.00;96453.88;4782548;29;20347;-88
2022/12/06 00:44:01;;;;;;;23.00;14.83;;;;;;;1.96;100.00;96445.91;4846011;29;20132;-87
2022/12/06 00:46:30;;;;;;;22.50;15.00;;;;;;;1.96;100.00;96455.47;4860449;29;20052;-87
2022/12/06 00:48:57;;;;;;;25.23;15.17;;;;;;;1.99;100.00;96445.72;4828455;29;20100;-87
2022/12/06 00:51:25;;;;;;;23.13;14.10;;;;;;;1.97;100.00;96457.09;4829763;29;20563;-88
2022/12/06 00:53:51;;;;;;;25.53;15.37;;;;;;;1.98;100.00;96448.38;4841859;29;20124;-86
2022/12/06 00:56:18;;;;;;;24.30;15.43;;;;;;;1.88;100.00;96443.81;4846106;29;20442;-88
2022/12/06 00:58:44;;;;;;;22.57;14.53;;;;;;;1.90;100.00;96443.72;4856554;29;20042;-87
2022/12/06 01:01:13;;;;;;;20.43;14.17;;;;;;;1.89;100.00;96447.25;4857156;29;20113;-87
2022/12/06 01:03:41;;;;;;;21.80;15.17;;;;;;;1.88;100.00;96448.19;4837554;29;20034;-87
2022/12/06 01:06:14;;;;;;;23.50;14.63;;;;;;;1.87;100.00;96446.50;4845631;29;20037;-88
2022/12/06 01:08:41;;;;;;;23.27;15.07;;;;;;;1.82;100.00;96448.59;4826621;29;20066;-87
2022/12/06 01:11:07;;;;;;;24.40;15.57;;;;;;;1.88;100.00;96448.19;4846140;29;20038;-87
2022/12/06 01:13:33;;;;;;;23.53;16.90;;;;;;;1.81;100.00;96450.34;4790948;29;20137;-87
2022/12/06 01:16:07;;;;;;;22.90;15.00;;;;;;;1.83;100.00;96450.22;4780542;29;20195;-87
2022/12/06 01:18:34;;;;;;;26.83;16.07;;;;;;;1.85;100.00;96454.41;4780374;29;20978;-88
2022/12/06 01:21:09;;;;;;;26.83;16.40;;;;;;;1.82;100.00;96453.78;4798497;29;20310;-88
2022/12/06 01:23:35;;;;;;;27.73;15.83;;;;;;;1.79;100.00;96452.19;4780231;29;20133;-87
2022/12/06 01:26:03;;;;;;;26.00;15.83;;;;;;;1.82;100.00;96453.78;4813329;29;20124;-87
2022/12/06 01:28:29;;;;;;;24.63;15.10;;;;;;;1.82;100.00;96446.81;4793228;29;21354;-87
2022/12/06 01:30:54;;;;;;;22.57;14.83;;;;;;;1.91;100.00;96449.72;4793690;29;20120;-85
2022/12/06 01:33:20;;;;;;;23.43;14.90;;;;;;;1.84;100.00;96451.88;4812800;29;20176;-87
2022/12/06 01:35:46;;;;;;;24.27;15.70;;;;;;;1.81;100.00;96449.50;4814706;29;20052;-87
2022/12/06 01:38:12;;;;;;;24.73;15.83;;;;;;;1.78;100.00;96452.31;4810355;29;20357;-87
2022/12/06 01:40:44;;;;;;;26.47;16.17;;;;;;;1.80;100.00;96446.06;4807797;29;20475;-87
2022/12/06 01:43:28;;;;;;;24.23;15.10;;;;;;;1.83;100.00;96445.06;4773438;29;20049;-87
2022/12/06 01:45:56;;;;;;;25.90;15.40;;;;;;;1.76;100.00;96436.84;4770003;29;20479;-88
2022/12/06 01:48:24;;;;;;;22.50;15.47;;;;;;;1.75;100.00;96431.78;4803392;29;20100;-87
2022/12/06 01:50:52;;;;;;;22.27;15.53;;;;;;;1.72;100.00;96427.59;4784510;29;20307;-87
2022/12/06 01:53:18;;;;;;;22.37;15.50;;;;;;;1.70;100.00;96429.47;4786421;29;20133;-87
2022/12/06 01:55:45;;;;;;;21.83;14.77;;;;;;;1.72;100.00;96421.59;4787824;29;20037;-87
2022/12/06 01:58:22;;;;;;;21.60;14.37;;;;;;;1.74;100.00;96419.72;4798225;29;20336;-87
2022/12/06 02:00:48;;;;;;;21.80;14.63;;;;;;;1.75;100.00;96427.41;4764673;29;20045;-88
2022/12/06 02:03:19;;;;;;;21.77;14.77;;;;;;;1.77;100.00;96430.72;4782461;29;20720;-88
2022/12/06 02:05:44;;;;;;;23.73;15.33;;;;;;;1.73;100.00;96423.25;4773042;29;20157;-88
2022/12/06 02:08:12;;;;;;;21.83;13.67;;;;;;;1.76;100.00;96420.47;4767597;29;20138;-89
2022/12/06 02:10:38;;;;;;;24.97;15.13;;;;;;;1.72;100.00;96413.81;4796823;29;20193;-88
2022/12/06 02:13:05;;;;;;;24.43;15.67;;;;;;;1.78;100.00;96418.59;4782338;29;21441;-88
2022/12/06 02:16:08;;;;;;;22.60;14.83;;;;;;;1.75;100.00;96416.22;4804436;29;20125;-88
2022/12/06 02:18:46;;;;;;;23.77;15.33;;;;;;;1.74;100.00;96417.13;4784800;29;20041;-88
2022/12/06 02:21:34;;;;;;;22.43;14.27;;;;;;;1.76;100.00;96412.69;4798236;29;20048;-88
2022/12/06 02:24:26;;;;;;;19.47;13.33;;;;;;;1.78;100.00;96422.03;4783916;29;20596;-88
2022/12/06 02:27:04;;;;;;;21.97;13.93;;;;;;;1.75;100.00;96406.66;4779477;29;20196;-89
2022/12/06 02:29:47;;;;;;;21.33;14.23;;;;;;;1.72;100.00;96409.47;4783890;29;20211;-88
2022/12/06 02:32:27;;;;;;;20.60;13.73;;;;;;;1.70;100.00;96405.28;4783546;29;20041;-88
2022/12/06 02:35:14;;;;;;;22.20;12.83;;;;;;;1.72;100.00;96403.44;4797438;29;20045;-89
2022/12/06 02:37:49;;;;;;;19.23;13.13;;;;;;;1.76;100.00;96397.94;4769210;29;21260;-88
2022/12/06 02:40:21;;;;;;;21.87;13.90;;;;;;;1.76;100.00;96399.72;4793144;29;20069;-88
2022/12/06 02:42:57;;;;;;;18.57;12.97;;;;;;;1.70;100.00;96387.16;4822894;29;20049;-88
2022/12/06 02:45:28;;;;;;;20.53;11.60;;;;;;;1.71;100.00;96383.63;4840005;29;20076;-88
2022/12/06 02:48:00;;;;;;;17.20;12.37;;;;;;;1.72;100.00;96385.31;4858062;29;20242;-89
2022/12/06 02:50:36;;;;;;;15.90;11.07;;;;;;;1.69;100.00;96390.69;4858815;29;20041;-89
2022/12/06 02:53:02;;;;;;;17.63;11.00;;;;;;;1.68;100.00;96391.59;4843561;29;20041;-88
2022/12/06 02:55:30;;;;;;;17.07;11.50;;;;;;;1.67;100.00;96390.78;4842203;29;20034;-88
2022/12/06 02:57:56;;;;;;;17.03;11.20;;;;;;;1.69;100.00;96380.31;4846679;29;20038;-89
2022/12/06 03:00:36;;;;;;;16.77;11.73;;;;;;;1.62;100.00;96382.47;4846961;29;20415;-88
2022/12/06 03:03:39;;;;;;;18.00;10.87;;;;;;;1.64;100.00;96378.00;4850486;29;20045;-88
2022/12/06 03:06:18;;;;;;;11.75;8.38;;;;;;;1.62;100.00;96375.53;4848393;29;20420;-88
2022/12/06 03:09:02;;;;;;;20.07;11.00;;;;;;;1.61;100.00;96376.47;4844956;29;20128;-88
2022/12/06 03:11:56;;;;;;;15.70;11.07;;;;;;;1.56;100.00;96382.88;4833140;29;20050;-88
2022/12/06 03:14:25;;;;;;;17.40;11.20;;;;;;;1.52;100.00;96377.06;4846923;29;21374;-88
2022/12/06 03:17:03;;;;;;;16.80;11.13;;;;;;;1.51;100.00;96374.56;4843655;29;20089;-88
2022/12/06 03:19:30;;;;;;;17.63;10.67;;;;;;;1.52;100.00;96371.06;4838677;29;20053;-88
2022/12/06 03:21:59;;;;;;;17.97;10.87;;;;;;;1.44;100.00;96370.72;4841245;29;20074;-88
2022/12/06 03:24:27;;;;;;;16.00;10.20;;;;;;;1.43;100.00;96369.88;4839923;29;20041;-88
2022/12/06 03:26:55;;;;;;;15.87;11.07;;;;;;;1.44;100.00;96368.13;4842341;29;20037;-88
2022/12/06 03:29:24;;;;;;;16.33;11.67;;;;;;;1.37;100.00;96370.28;4856807;29;20037;-88
2022/12/06 03:31:51;;;;;;;16.13;11.17;;;;;;;1.35;100.00;96361.78;4848065;29;20119;-87
2022/12/06 03:34:26;;;;;;;15.47;10.23;;;;;;;1.29;100.00;96357.00;4844992;29;20029;-88
2022/12/06 03:36:53;;;;;;;16.17;10.93;;;;;;;1.28;100.00;96358.75;4835053;29;20602;-89
2022/12/06 03:39:47;;;;;;;16.77;12.27;;;;;;;1.27;100.00;96348.47;4840618;29;20033;-88
2022/12/06 03:42:13;;;;;;;11.05;7.95;;;;;;;1.24;100.00;96353.84;4841895;29;20049;-88
2022/12/06 03:44:39;;;;;;;15.40;11.27;;;;;;;1.22;100.00;96353.16;4860665;29;20140;-89
2022/12/06 03:47:16;;;;;;;16.33;10.13;;;;;;;1.18;100.00;96352.50;4832922;29;20140;-88
2022/12/06 03:49:47;;;;;;;19.60;11.40;;;;;;;1.17;100.00;96354.28;4852748;29;20142;-88
2022/12/06 03:52:12;;;;;;;16.27;11.53;;;;;;;1.15;100.00;96350.94;4846306;29;20037;-88
2022/12/06 03:54:39;;;;;;;16.77;11.57;;;;;;;1.10;100.00;96363.34;4859770;29;20056;-88
2022/12/06 03:57:05;;;;;;;16.03;10.47;;;;;;;1.11;100.00;96344.31;4841349;29;20079;-88
2022/12/06 03:59:31;;;;;;;18.97;10.80;;;;;;;1.08;100.00;96354.88;4839824;29;20068;-88
2022/12/06 04:01:57;;;;;;;15.37;10.77;;;;;;;1.13;100.00;96357.97;4859329;29;20068;-88
2022/12/06 04:04:23;;;;;;;18.37;11.00;;;;;;;1.14;100.00;96348.44;4838694;29;20049;-88
2022/12/06 04:06:50;;;;;;;16.63;11.07;;;;;;;1.14;100.00;96349.28;4847626;29;20046;-88
2022/12/06 04:12:00;;;;;;;15.87;10.13;;;;;;;1.14;100.00;96344.13;4858671;29;20049;-88
2022/12/06 04:14:31;;;;;;;15.93;10.77;;;;;;;1.13;100.00;96345.03;4857369;29;20679;-88
2022/12/06 04:19:42;;;;;;;35.10;24.00;;;;;;;1.15;100.00;96337.16;4846379;29;20061;-89
2022/12/06 04:24:52;;;;;;;19.00;12.37;;;;;;;1.15;100.00;96329.41;4872969;29;20261;-88
2022/12/06 04:40:59;;;;;;;17.70;10.93;;;;;;;1.15;100.00;96327.63;4856203;29;20041;-88
2022/12/06 04:43:40;;;;;;;41.57;26.90;;;;;;;1.16;100.00;96329.28;4838224;29;20045;-87
2022/12/06 04:46:07;;;;;;;32.70;21.47;;;;;;;1.13;100.00;96332.06;4830694;29;20090;-88
2022/12/06 04:48:33;;;;;;;19.27;12.77;;;;;;;1.17;100.00;96325.78;4841699;29;20065;-88
2022/12/06 04:50:59;;;;;;;17.80;11.67;;;;;;;1.23;100.00;96334.06;4861266;29;20208;-88
2022/12/06 04:53:24;;;;;;;17.53;12.63;;;;;;;1.23;100.00;96321.13;4843051;29;20038;-88
2022/12/06 04:55:51;;;;;;;19.03;11.30;;;;;;;1.24;100.00;96320.19;4857183;29;20037;-89
2022/12/06 04:58:25;;;;;;;17.87;11.27;;;;;;;1.25;100.00;96314.09;4871133;29;20091;-88
2022/12/06 05:01:03;;;;;;;35.93;12.07;;;;;;;1.45;100.00;96320.56;4853699;29;20070;-86
2022/12/06 05:03:29;;;;;;;359.27;230.87;;;;;;;1.61;100.00;96311.66;4873721;29;20132;-87
2022/12/06 05:06:04;;;;;;;182.77;112.50;;;;;;;1.52;100.00;96309.69;4870836;29;20596;-86
2022/12/06 05:08:37;;;;;;;47.87;31.97;;;;;;;1.47;100.00;96309.13;4861884;29;20100;-88
2022/12/06 05:11:13;;;;;;;16.63;11.70;;;;;;;1.45;100.00;96310.19;4859158;29;20037;-88
2022/12/06 05:13:39;;;;;;;17.20;10.70;;;;;;;1.38;100.00;96299.41;4791536;29;20038;-89
2022/12/06 05:16:07;;;;;;;16.80;11.77;;;;;;;1.30;100.00;96299.88;4748348;29;20044;-89
2022/12/06 05:18:33;;;;;;;20.50;12.50;;;;;;;1.32;100.00;96294.63;4732908;29;22010;-89
2022/12/06 05:21:07;;;;;;;23.73;13.90;;;;;;;1.26;100.00;96293.25;4768370;29;22865;-89
2022/12/06 05:23:34;;;;;;;28.50;16.47;;;;;;;1.29;100.00;96300.81;4766404;29;20050;-88
2022/12/06 05:26:01;;;;;;;28.23;15.97;;;;;;;1.30;100.00;96304.25;4749633;29;20116;-89
2022/12/06 05:28:28;;;;;;;27.93;16.77;;;;;;;1.28;100.00;96300.94;4731139;29;20043;-88
2022/12/06 05:30:54;;;;;;;26.67;15.60;;;;;;;1.31;100.00;96306.75;4750722;29;20119;-88
2022/12/06 05:33:20;;;;;;;26.77;16.60;;;;;;;1.32;100.00;96312.75;4766323;29;20068;-90
2022/12/06 05:35:46;;;;;;;24.20;15.73;;;;;;;1.32;100.00;96310.16;4734787;29;20037;-89
2022/12/06 05:38:11;;;;;;;20.40;13.03;;;;;;;1.31;100.00;96305.94;4771218;29;20156;-90
2022/12/06 05:40:41;;;;;;;21.33;13.60;;;;;;;1.34;100.00;96297.91;4771561;29;20043;-89
2022/12/06 05:43:08;;;;;;;17.60;11.97;;;;;;;1.31;100.00;96305.94;4799846;29;20141;-89
2022/12/06 05:45:33;;;;;;;19.27;12.97;;;;;;;1.41;100.00;96304.38;4802814;29;20034;-89
2022/12/06 05:47:59;;;;;;;18.13;12.23;;;;;;;1.37;100.00;96302.91;4808362;29;20052;-89
2022/12/06 05:50:25;;;;;;;18.53;13.30;;;;;;;1.36;100.00;96304.66;4793447;29;21126;-89
2022/12/06 05:52:58;;;;;;;21.07;13.83;;;;;;;1.35;100.00;96304.78;4775633;29;20069;-89
2022/12/06 05:55:24;;;;;;;18.33;12.98;;;;;;;1.29;100.00;96307.78;4798706;29;20046;-89
2022/12/06 05:57:50;;;;;;;21.10;13.10;;;;;;;1.31;100.00;96316.28;4800550;29;20053;-89
2022/12/06 06:00:17;;;;;;;17.67;12.60;;;;;;;1.37;100.00;96302.91;4798198;29;20124;-89
2022/12/06 06:02:43;;;;;;;17.17;11.90;;;;;;;1.45;100.00;96308.44;4782740;29;20045;-87
2022/12/06 06:05:11;;;;;;;16.87;11.40;;;;;;;1.41;100.00;96309.56;4854975;29;20022;-90
2022/12/06 06:07:38;;;;;;;18.50;12.23;;;;;;;1.43;100.00;96307.69;4819537;29;20136;-89
2022/12/06 06:10:05;;;;;;;18.20;11.77;;;;;;;1.38;100.00;96314.94;4813342;29;20041;-89
2022/12/06 06:12:33;;;;;;;16.40;11.43;;;;;;;1.41;100.00;96307.81;4791400;29;20041;-89
2022/12/06 06:14:58;;;;;;;17.03;11.43;;;;;;;1.44;100.00;96301.56;4825657;29;20041;-87
2022/12/06 06:17:29;;;;;;;15.13;10.93;;;;;;;1.44;100.00;96308.50;4873905;29;20121;-88
2022/12/06 06:19:55;;;;;;;21.70;12.70;;;;;;;1.43;100.00;96302.50;4876432;29;20045;-88
2022/12/06 06:22:23;;;;;;;17.70;11.83;;;;;;;1.43;100.00;96302.50;4856801;29;20502;-89
2022/12/06 06:24:50;;;;;;;18.83;12.47;;;;;;;1.42;100.00;96306.88;4873962;29;20124;-89
2022/12/06 06:27:19;;;;;;;22.10;13.70;;;;;;;1.42;100.00;96308.63;4870183;29;20044;-89
2022/12/06 06:29:44;;;;;;;21.10;13.67;;;;;;;1.40;100.00;96313.06;4868145;29;20041;-89
2022/12/06 06:32:12;;;;;;;19.47;14.00;;;;;;;1.41;100.00;96306.97;4868420;29;20041;-88
2022/12/06 06:34:42;;;;;;;18.03;12.03;;;;;;;1.39;100.00;96316.59;4868224;29;20060;-89
2022/12/06 06:37:09;;;;;;;15.13;10.07;;;;;;;1.41;100.00;96312.97;4870618;29;20072;-89
2022/12/06 06:39:35;;;;;;;17.53;11.70;;;;;;;1.40;100.00;96308.72;4841712;29;20040;-89
2022/12/06 06:42:01;;;;;;;17.83;12.60;;;;;;;1.47;100.00;96311.72;4870772;29;20046;-89
2022/12/06 06:44:27;;;;;;;16.50;11.03;;;;;;;1.51;100.00;96310.63;4872763;29;20116;-89
2022/12/06 06:46:55;;;;;;;17.77;12.17;;;;;;;1.55;100.00;96312.06;4872014;29;20136;-89
2022/12/06 06:49:24;;;;;;;13.30;10.13;;;;;;;1.41;100.00;96317.34;4870348;29;20171;-89
2022/12/06 06:51:50;;;;;;;16.13;10.63;;;;;;;1.46;100.00;96323.03;4858475;29;20971;-89
2022/12/06 06:54:17;;;;;;;15.23;10.37;;;;;;;1.48;100.00;96321.19;4872150;29;20101;-90
2022/12/06 06:56:43;;;;;;;14.90;10.20;;;;;;;1.48;100.00;96320.34;4872680;29;20061;-89
2022/12/06 06:59:09;;;;;;;13.13;9.30;;;;;;;1.43;100.00;96323.22;4871327;29;20029;-89
2022/12/06 07:01:35;;;;;;;16.57;10.67;;;;;;;1.41;100.00;96320.75;4858881;29;20109;-89
2022/12/06 07:04:01;;;;;;;15.57;9.70;;;;;;;1.43;100.00;96325.81;4854950;29;20046;-89
2022/12/06 07:06:36;;;;;;;16.63;9.63;;;;;;;1.45;100.00;96321.38;4842474;29;20097;-89
2022/12/06 07:09:02;;;;;;;15.67;11.20;;;;;;;1.47;100.00;96331.63;4863189;29;20101;-89
2022/12/06 07:11:30;;;;;;;14.43;10.07;;;;;;;1.37;100.00;96318.44;4839887;29;20033;-89
2022/12/06 07:13:56;;;;;;;15.83;10.67;;;;;;;1.40;100.00;96323.44;4859907;29;20057;-89
2022/12/06 07:16:22;;;;;;;16.23;10.30;;;;;;;1.41;100.00;96319.94;4858116;29;20037;-89
2022/12/06 07:18:52;;;;;;;13.23;9.07;;;;;;;1.46;100.00;96322.22;4855130;29;20079;-89
2022/12/06 07:21:18;;;;;;;15.23;9.33;;;;;;;1.47;100.00;96316.91;4854476;29;20029;-89
2022/12/06 07:23:44;;;;;;;15.67;9.17;;;;;;;1.50;100.00;96308.94;4857004;29;20068;-89
2022/12/06 07:26:13;;;;;;;14.50;9.27;;;;;;;1.50;100.00;96308.13;4857145;29;20041;-89
2022/12/06 07:28:41;;;;;;;14.47;9.50;;;;;;;1.51;100.00;96312.34;4855384;29;20041;-89
2022/12/06 07:31:27;;;;;;;15.67;9.87;;;;;;;1.52;100.00;96309.69;4871373;29;20066;-89
2022/12/06 07:34:00;;;;;;;14.60;9.00;;;;;;;1.54;100.00;96307.81;4836968;29;20056;-89
2022/12/06 07:36:35;;;;;;;12.93;8.82;;;;;;;1.57;100.00;96310.19;4856126;29;20131;-89
2022/12/06 07:39:04;;;;;;;12.60;8.90;;;;;;;1.52;100.00;96312.28;4855166;29;20046;-88
2022/12/06 07:47:18;;;;;;;12.77;8.40;;;;;;;1.47;100.00;96314.31;4864945;29;20097;-89
2022/12/06 07:49:43;;;;;;;14.27;8.90;;;;;;;1.46;100.00;96307.50;4859863;29;20122;-89
2022/12/06 07:52:09;;;;;;;14.37;9.53;;;;;;;1.56;100.00;96313.72;4845737;29;20098;-90
2022/12/06 07:54:35;;;;;;;13.23;8.67;;;;;;;1.57;100.00;96304.19;4873169;29;20097;-89
2022/12/06 07:57:01;;;;;;;13.63;8.93;;;;;;;1.64;100.00;96305.41;4868643;29;20046;-89
2022/12/06 07:59:26;;;;;;;14.07;9.37;;;;;;;1.67;100.00;96304.41;4855372;29;20037;-89
2022/12/06 08:02:02;;;;;;;12.70;8.00;;;;;;;1.63;100.00;96308.97;4837731;29;20749;-89
2022/12/06 08:04:28;;;;;;;13.17;7.90;;;;;;;1.68;100.00;96308.63;4863240;29;20093;-89
2022/12/06 08:06:59;;;;;;;12.90;7.93;;;;;;;1.65;100.00;96301.91;4869190;29;21463;-89
2022/12/06 08:09:28;;;;;;;13.03;8.20;;;;;;;1.65;100.00;96301.91;4853796;29;20037;-89
2022/12/06 08:11:54;;;;;;;11.73;7.47;;;;;;;1.64;100.00;96311.47;4842414;29;20052;-89
2022/12/06 08:14:20;;;;;;;11.80;7.63;;;;;;;1.68;100.00;96306.03;4840619;29;21075;-89
2022/12/06 08:16:48;;;;;;;12.07;7.37;;;;;;;1.67;100.00;96299.22;4873359;29;20037;-89
2022/12/06 08:19:14;;;;;;;12.30;7.57;;;;;;;1.70;100.00;96304.19;4855195;29;20069;-89
2022/12/06 08:21:40;;;;;;;11.80;7.03;;;;;;;1.65;100.00;96304.50;4848613;29;20052;-89
2022/12/06 08:24:06;;;;;;;11.97;7.73;;;;;;;1.66;100.00;96300.97;4855898;29;20365;-89
2022/12/06 08:26:32;;;;;;;13.37;7.50;;;;;;;1.74;100.00;96308.22;4860726;29;20053;-90
2022/12/06 08:29:22;;;;;;;17.03;10.10;;;;;;;1.85;100.00;96303.16;4848924;29;20029;-90
2022/12/06 08:31:48;;;;;;;15.23;9.83;;;;;;;1.77;100.00;96308.03;4860785;29;20500;-90
2022/12/06 08:34:22;;;;;;;12.97;9.03;;;;;;;1.77;100.00;96315.81;4858972;29;20060;-90
2022/12/06 08:36:51;;;;;;;13.10;7.60;;;;;;;1.82;100.00;96313.75;4883262;29;20038;-89
2022/12/06 08:39:24;;;;;;;10.77;6.80;;;;;;;1.89;100.00;96309.81;4857412;29;20028;-89
2022/12/06 08:41:58;;;;;;;11.40;7.55;;;;;;;1.86;100.00;96307.41;4867207;29;20041;-89
2022/12/06 08:44:24;;;;;;;;;;;;;;;1.84;100.00;96311.84;4852988;29;20110;-89
2022/12/06 08:46:51;;;;;;;13.00;7.20;;;;;;;1.88;100.00;96303.78;4861593;29;19919;-89
2022/12/06 08:49:17;;;;;;;11.63;7.13;;;;;;;1.88;100.00;96318.53;4856148;29;20041;-89
2022/12/06 08:51:45;;;;;;;11.43;6.73;;;;;;;1.94;100.00;96312.91;4853071;29;20037;-89
2022/12/06 08:54:17;;;;;;;10.30;6.83;;;;;;;1.96;100.00;96311.03;4876396;29;20050;-89
2022/12/06 08:56:44;;;;;;;10.60;6.40;;;;;;;2.07;100.00;96313.72;4862716;29;20436;-89
2022/12/06 08:59:10;;;;;;;10.40;6.87;;;;;;;2.04;100.00;96308.75;4881097;29;20284;-89
2022/12/06 09:01:37;;;;;;;10.97;7.20;;;;;;;2.04;100.00;96316.53;4862012;29;20065;-89
2022/12/06 09:04:04;;;;;;;10.93;7.50;;;;;;;2.02;100.00;96310.63;4860924;29;20041;-89
2022/12/06 09:06:32;;;;;;;9.83;6.67;;;;;;;2.00;100.00;96312.47;4854563;29;20306;-89
2022/12/06 09:09:14;;;;;;;11.40;7.23;;;;;;;2.09;100.00;96318.81;4850485;29;20539;-89
2022/12/06 09:11:40;;;;;;;9.17;6.00;;;;;;;2.03;100.00;96314.88;4868381;29;20133;-89
2022/12/06 09:14:16;;;;;;;11.13;6.73;;;;;;;2.12;100.00;96316.03;4858027;29;20038;-89
2022/12/06 09:16:44;;;;;;;14.37;8.40;;;;;;;2.13;100.00;96315.91;4855683;29;20718;-90
2022/12/06 09:19:11;;;;;;;13.53;8.47;;;;;;;2.15;100.00;96314.97;4871380;29;20101;-88
2022/12/06 09:21:47;;;;;;;11.77;6.97;;;;;;;2.20;100.00;96323.25;4879115;29;20044;-90
2022/12/06 09:24:15;;;;;;;10.27;6.73;;;;;;;2.13;100.00;96317.66;4859621;29;20795;-89
2022/12/06 09:26:41;;;;;;;10.97;6.47;;;;;;;2.22;100.00;96317.03;4894148;29;20042;-85
2022/12/06 09:29:08;;;;;;;10.17;6.17;;;;;;;2.43;100.00;96311.28;4865993;29;20040;-84
2022/12/06 09:31:39;;;;;;;12.10;6.80;;;;;;;2.35;100.00;96320.44;4876114;29;20491;-85
2022/12/06 09:34:09;;;;;;;12.63;8.40;;;;;;;2.32;100.00;96317.25;4864994;29;20064;-85
2022/12/06 09:36:40;;;;;;;14.00;7.33;;;;;;;2.36;100.00;96309.13;4883188;29;20710;-85
2022/12/06 09:39:13;;;;;;;12.30;7.03;;;;;;;2.37;100.00;96309.94;4865355;29;20038;-84
2022/12/06 09:41:57;;;;;;;10.82;7.50;;;;;;;2.38;100.00;96313.38;4859761;29;20491;-85
2022/12/06 09:44:41;;;;;;;;;;;;;;;2.35;100.00;96315.25;4849856;29;20720;-85
2022/12/06 09:47:22;;;;;;;17.33;8.67;;;;;;;2.39;100.00;96308.09;4856871;29;20043;-85
2022/12/06 09:50:27;;;;;;;12.87;7.87;;;;;;;2.39;100.00;96307.25;4844490;29;20416;-85
2022/12/06 09:53:18;;;;;;;11.30;6.87;;;;;;;2.34;100.00;96310.97;4859095;29;20068;-84
2022/12/06 09:56:22;;;;;;;10.47;6.90;;;;;;;2.29;100.00;96312.25;4861882;29;20543;-84
2022/12/06 09:59:16;;;;;;;10.95;7.05;;;;;;;2.31;100.00;96318.16;4885872;29;20049;-85
2022/12/06 10:01:49;;;;;;;8.82;5.28;;;;;;;2.38;100.00;96305.59;4894014;29;20040;-85
2022/12/06 10:04:19;;;;;;;;;;;;;;;2.32;100.00;96307.69;4843203;29;20045;-85
2022/12/06 10:07:01;;;;;;;11.07;7.17;;;;;;;2.38;100.00;96296.03;4857956;29;19932;-84
2022/12/06 10:09:49;;;;;;;11.20;7.33;;;;;;;2.38;100.00;96296.03;4859666;29;20033;-85
2022/12/06 10:12:33;;;;;;;11.80;7.27;;;;;;;2.25;100.00;96310.81;4849451;29;20044;-85
2022/12/06 10:15:14;;;;;;;11.93;7.27;;;;;;;2.26;100.00;96296.91;4855859;29;20692;-85
2022/12/06 10:18:20;;;;;;;11.20;7.30;;;;;;;2.22;100.00;96300.66;4861233;29;20049;-84
2022/12/06 10:21:05;;;;;;;11.50;7.43;;;;;;;2.19;100.00;96301.69;4882232;29;20119;-84
2022/12/06 10:23:53;;;;;;;14.13;7.80;;;;;;;2.19;100.00;96300.88;4864445;29;21663;-85
2022/12/06 10:26:54;;;;;;;11.93;7.63;;;;;;;2.22;100.00;96300.66;4875363;29;20038;-85
2022/12/06 10:29:37;;;;;;;11.80;7.63;;;;;;;2.12;100.00;96301.28;4872594;29;20398;-85
2022/12/06 10:32:24;;;;;;;12.57;9.43;;;;;;;2.18;100.00;96302.63;4870306;29;20038;-85
2022/12/06 10:35:12;;;;;;;12.77;8.13;;;;;;;2.21;100.00;96301.56;4892377;29;20068;-85
2022/12/06 10:38:06;;;;;;;14.03;8.17;;;;;;;2.22;100.00;96293.69;4845358;29;20037;-85
2022/12/06 10:41:00;;;;;;;11.43;8.07;;;;;;;2.32;100.00;96291.28;4884955;29;20069;-85
2022/12/06 10:43:43;;;;;;;13.57;8.75;;;;;;;2.30;100.00;96288.78;4867517;29;20029;-84
2022/12/06 10:49:19;;;;;;;11.68;7.97;;;;;;;2.34;100.00;96277.25;4893218;29;20127;-85
2022/12/06 10:51:54;;;;;;;12.10;8.40;;;;;;;2.34;100.00;96271.22;4872586;29;20491;-85
2022/12/06 10:54:24;;;;;;;13.73;9.70;;;;;;;2.36;100.00;96269.38;4868321;29;20049;-85
2022/12/06 10:56:53;;;;;;;13.77;8.67;;;;;;;2.36;100.00;96277.16;4884314;29;20104;-85
2022/12/06 10:59:36;;;;;;;13.17;9.60;;;;;;;2.40;100.00;96282.97;4851689;29;20475;-85
2022/12/06 11:02:19;;;;;;;13.03;8.73;;;;;;;2.40;100.00;96280.38;4878128;29;20112;-86
2022/12/06 11:05:27;;;;;;;13.77;8.57;;;;;;;2.38;100.00;96274.44;4862275;29;20665;-87
2022/12/06 11:08:02;;;;;;;14.13;7.70;;;;;;;2.27;100.00;96276.03;4866442;29;20518;-86
2022/12/06 11:10:32;;;;;;;12.83;8.43;;;;;;;2.33;100.00;96282.56;4868732;29;20133;-86
2022/12/06 11:13:39;;;;;;;13.17;8.63;;;;;;;2.42;100.00;96278.50;4854110;29;20404;-85
2022/12/06 11:16:28;;;;;;;12.30;8.13;;;;;;;2.36;100.00;96275.38;4864802;29;20197;-87
2022/12/06 11:19:27;;;;;;;14.90;8.77;;;;;;;2.35;100.00;96285.88;4863681;29;20044;-87
2022/12/06 11:22:09;;;;;;;15.03;10.13;;;;;;;2.36;100.00;96274.56;4866939;29;20503;-87
2022/12/06 11:24:54;;;;;;;;;;;;;;;;;;;;;
2022/12/06 11:27:48;;;;;;;32.67;14.40;;;;;;;2.41;100.00;96276.81;4861300;29;20044;-85
2022/12/06 11:30:18;;;;;;;42.05;19.85;;;;;;;2.38;100.00;96270.06;4854235;29;20049;-88
2022/12/06 11:36:05;;;;;;;15.77;10.43;;;;;;;2.40;100.00;96268.22;4854090;29;20046;-87
2022/12/06 11:38:54;;;;;;;13.10;9.73;;;;;;;2.46;100.00;96272.97;4859691;29;20041;-85
2022/12/06 11:41:57;;;;;;;15.87;10.20;;;;;;;2.51;100.00;96273.47;4884087;29;20071;-89
2022/12/06 11:45:33;;;;;;;;;;;;;;;;;;;;;
2022/12/06 11:48:22;;;;;;;19.83;13.17;;;;;;;2.38;100.00;96275.25;4863633;29;20731;-84
2022/12/06 11:50:49;;;;;;;21.20;13.63;;;;;;;2.48;100.00;96263.31;4857262;29;20073;-86
2022/12/06 11:53:24;;;;;;;18.87;12.47;;;;;;;2.47;100.00;96263.41;4846023;29;20809;-86
2022/12/06 11:56:14;;;;;;;21.13;13.33;;;;;;;2.50;100.00;96261.44;4883379;29;20411;-86
2022/12/06 11:59:02;;;;;;;20.33;12.97;;;;;;;2.50;100.00;96264.03;4846845;29;20101;-86
2022/12/06 12:01:44;;;;;;;18.00;11.30;;;;;;;2.53;100.00;96263.81;4878629;29;20033;-86
2022/12/06 12:04:31;;;;;;;19.57;12.03;;;;;;;2.45;100.00;96260.94;4869795;29;20080;-86
2022/12/06 12:07:01;;;;;;;18.77;12.17;;;;;;;2.36;100.00;96256.41;4846130;29;20063;-87
2022/12/06 12:09:34;;;;;;;21.27;13.30;;;;;;;2.39;100.00;96258.78;4855184;29;20053;-86
2022/12/06 12:12:05;;;;;;;22.27;14.82;;;;;;;2.40;100.00;96254.41;4857110;29;20037;-87
2022/12/06 12:14:43;;;;;;;20.10;12.87;;;;;;;2.37;100.00;96258.03;4880982;29;20123;-86
2022/12/06 12:17:19;;;;;;;19.40;11.80;;;;;;;2.34;100.00;96259.09;4870957;29;20051;-86
2022/12/06 12:19:57;;;;;;;19.40;11.97;;;;;;;2.35;100.00;96254.75;4836852;29;20124;-87
2022/12/06 12:22:37;;;;;;;18.97;12.00;;;;;;;2.37;100.00;96247.66;4845247;29;20071;-86
2022/12/06 12:25:27;;;;;;;19.47;11.03;;;;;;;2.22;100.00;96247.00;4856976;29;20037;-86